createdAt,value
2019-01-03T00:00:08.126Z,1.50
2019-01-03T00:02:57.504Z,1.50
2019-01-03T00:05:53.438Z,1.50
2019-01-03T00:08:50.893Z,1.50
2019-01-03T00:11:36.579Z,1.50
2019-01-03T00:14:24.692Z,1.50
2019-01-03T00:17:11.217Z,1.50
2019-01-03T00:20:11.620Z,1.50
2019-01-03T00:23:09.165Z,1.50
2019-01-03T00:25:54.694Z,1.50
2019-01-03T00:28:41.432Z,1.50
2019-01-03T00:31:38.512Z,1.50
2019-01-03T00:34:22.345Z,1.50
2019-01-03T00:37:28.476Z,1.40
2019-01-03T00:40:16.300Z,1.40
2019-01-03T00:43:17.393Z,1.30
2019-01-03T00:46:13.048Z,1.30
2019-01-03T00:48:56.756Z,1.40
2019-01-03T00:51:38.614Z,1.30
2019-01-03T00:54:33.187Z,1.40
2019-01-03T00:57:25.026Z,1.30
2019-01-03T01:00:16.299Z,1.30
2019-01-03T01:03:10.553Z,1.30
2019-01-03T01:06:07.715Z,1.30
2019-01-03T01:09:08.186Z,1.40
2019-01-03T01:11:55.126Z,1.40
2019-01-03T01:14:58.125Z,1.40
2019-01-03T01:17:45.991Z,1.50
2019-01-03T01:20:32.646Z,1.50
2019-01-03T01:23:19.290Z,1.50
2019-01-03T01:26:22.559Z,1.50
2019-01-03T01:29:10.870Z,1.60
2019-01-03T01:31:52.666Z,1.60
2019-01-03T01:34:49.721Z,1.60
2019-01-03T01:37:49.940Z,1.60
2019-01-03T01:40:36.988Z,1.60
2019-01-03T01:43:24.003Z,1.70
2019-01-03T01:46:10.624Z,1.70
2019-01-03T01:48:57.391Z,1.70
2019-01-03T01:51:43.274Z,1.70
2019-01-03T01:54:43.004Z,1.70
2019-01-03T01:57:43.304Z,1.60
2019-01-03T02:00:31.836Z,1.60
2019-01-03T02:03:35.014Z,1.60
2019-01-03T02:06:21.845Z,1.60
2019-01-03T02:09:08.539Z,1.60
2019-01-03T02:12:11.680Z,1.70
2019-01-03T02:14:58.275Z,1.70
2019-01-03T02:17:49.746Z,1.70
2019-01-03T02:20:41.701Z,1.70
2019-01-03T02:23:28.704Z,1.70
2019-01-03T02:26:15.447Z,1.70
2019-01-03T02:29:15.784Z,1.70
2019-01-03T02:32:02.232Z,1.70
2019-01-03T02:34:48.814Z,1.70
2019-01-03T02:37:35.627Z,1.70
2019-01-03T02:40:31.150Z,1.70
2019-01-03T02:43:21.861Z,1.70
2019-01-03T02:46:08.334Z,1.70
2019-01-03T02:48:56.567Z,1.70
2019-01-03T02:51:50.778Z,1.80
2019-01-03T02:54:39.171Z,1.80
2019-01-03T02:57:25.774Z,1.80
2019-01-03T03:00:16.529Z,1.80
2019-01-03T03:03:03.215Z,1.80
2019-01-03T03:05:53.483Z,1.80
2019-01-03T03:08:37.882Z,1.80
2019-01-03T03:11:41.347Z,1.70
2019-01-03T03:14:28.354Z,1.70
2019-01-03T03:17:14.911Z,1.70
2019-01-03T03:19:52.321Z,1.70
2019-01-03T03:22:49.494Z,1.70
2019-01-03T03:25:35.313Z,1.60
2019-01-03T03:28:38.395Z,1.60
2019-01-03T03:31:24.919Z,1.60
2019-01-03T03:34:11.533Z,1.50
2019-01-03T03:36:58.316Z,1.50
2019-01-03T03:40:01.419Z,1.50
2019-01-03T03:43:04.382Z,1.60
2019-01-03T03:45:51.032Z,1.60
2019-01-03T03:48:37.981Z,1.60
2019-01-03T03:51:26.397Z,1.60
2019-01-03T03:54:26.951Z,1.60
2019-01-03T03:57:13.760Z,1.60
2019-01-03T04:00:00.735Z,1.60
2019-01-03T04:02:47.322Z,1.70
2019-01-03T04:05:34.266Z,1.70
2019-01-03T04:08:20.787Z,1.80
2019-01-03T04:11:12.243Z,1.80
2019-01-03T04:14:00.236Z,1.90
2019-01-03T04:16:38.851Z,1.90
2019-01-03T04:19:32.928Z,1.90
2019-01-03T04:22:20.299Z,2.00
2019-01-03T04:25:17.695Z,2.00
2019-01-03T04:28:04.703Z,2.10
2019-01-03T04:30:51.423Z,2.00
2019-01-03T04:33:38.399Z,2.00
2019-01-03T04:36:18.889Z,2.00
2019-01-03T04:39:02.724Z,2.00
2019-01-03T04:41:50.653Z,2.00
2019-01-03T04:44:44.631Z,2.00
2019-01-03T04:47:20.606Z,2.10
2019-01-03T04:50:14.851Z,2.10
2019-01-03T04:53:01.952Z,2.20
2019-01-03T04:55:56.112Z,2.20
2019-01-03T04:59:02.197Z,2.20
2019-01-03T05:02:07.963Z,2.20
2019-01-03T05:04:58.523Z,2.20
2019-01-03T05:07:40.636Z,2.20
2019-01-03T05:10:28.695Z,2.20
2019-01-03T05:13:15.338Z,2.10
2019-01-03T05:16:09.366Z,2.10
2019-01-03T05:19:09.138Z,2.00
2019-01-03T05:22:05.677Z,1.90
2019-01-03T05:24:56.482Z,2.00
2019-01-03T05:27:43.653Z,1.90
2019-01-03T05:30:39.938Z,1.90
2019-01-03T05:33:26.380Z,1.90
2019-01-03T05:36:21.176Z,1.90
2019-01-03T05:39:08.237Z,1.90
2019-01-03T05:41:54.702Z,1.90
2019-01-03T05:44:41.316Z,1.90
2019-01-03T05:47:44.410Z,1.90
2019-01-03T05:50:39.298Z,1.80
2019-01-03T05:53:30.020Z,1.80
2019-01-03T05:56:23.035Z,1.70
2019-01-03T05:59:15.064Z,1.70
2019-01-03T06:01:59.845Z,1.70
2019-01-03T06:04:43.352Z,1.60
2019-01-03T06:07:46.488Z,1.60
2019-01-03T06:10:31.031Z,1.50
2019-01-03T06:13:31.343Z,1.50
2019-01-03T06:16:28.525Z,1.40
2019-01-03T06:19:14.745Z,1.40
2019-01-03T06:22:04.911Z,1.40
2019-01-03T06:24:56.219Z,1.40
2019-01-03T06:27:44.322Z,1.40
2019-01-03T06:30:32.705Z,1.40
2019-01-03T06:33:15.675Z,1.40
2019-01-03T06:36:15.543Z,1.40
2019-01-03T06:39:08.974Z,1.40
2019-01-03T06:41:56.186Z,1.50
2019-01-03T06:44:47.475Z,1.50
2019-01-03T06:47:38.088Z,1.50
2019-01-03T06:50:25.091Z,1.50
2019-01-03T06:53:10.042Z,1.60
2019-01-03T06:56:00.867Z,1.60
2019-01-03T06:58:47.432Z,1.60
2019-01-03T07:01:44.836Z,1.70
2019-01-03T07:04:38.942Z,1.70
2019-01-03T07:07:30.270Z,1.80
2019-01-03T07:10:16.751Z,1.80
2019-01-03T07:13:03.478Z,1.80
2019-01-03T07:15:50.323Z,1.80
2019-01-03T07:18:44.132Z,1.80
2019-01-03T07:21:27.429Z,1.90
2019-01-03T07:24:18.669Z,1.90
2019-01-03T07:27:04.756Z,1.90
2019-01-03T07:29:52.833Z,1.90
2019-01-03T07:32:39.640Z,1.90
2019-01-03T07:35:23.183Z,1.90
2019-01-03T07:38:13.751Z,1.90
2019-01-03T07:41:01.808Z,2.00
2019-01-03T07:43:59.512Z,2.00
2019-01-03T07:46:59.594Z,1.90
2019-01-03T07:50:05.598Z,1.90
2019-01-03T07:52:49.415Z,1.90
2019-01-03T07:55:36.299Z,1.90
2019-01-03T07:58:42.497Z,1.90
2019-01-03T08:01:42.608Z,1.80
2019-01-03T08:04:39.463Z,1.80
2019-01-03T08:07:42.422Z,1.70
2019-01-03T08:10:28.832Z,1.70
2019-01-03T08:13:28.416Z,1.70
2019-01-03T08:16:26.030Z,1.70
2019-01-03T08:19:23.155Z,1.70
2019-01-03T08:22:13.396Z,1.80
2019-01-03T08:25:00.284Z,1.70
2019-01-03T08:27:51.105Z,1.80
2019-01-03T08:30:38.785Z,1.80
2019-01-03T08:33:23.458Z,1.80
2019-01-03T08:36:10.107Z,1.80
2019-01-03T08:38:56.864Z,1.80
2019-01-03T08:41:55.006Z,1.80
2019-01-03T08:44:45.886Z,2.00
2019-01-03T08:47:39.931Z,2.10
2019-01-03T08:50:26.470Z,2.20
2019-01-03T08:53:13.960Z,2.40
2019-01-03T08:56:00.862Z,2.60
2019-01-03T08:58:47.534Z,2.80
2019-01-03T09:01:34.076Z,2.90
2019-01-03T09:04:31.152Z,3.00
2019-01-03T09:07:17.872Z,3.10
2019-01-03T09:10:21.750Z,3.10
2019-01-03T09:13:08.480Z,3.20
2019-01-03T09:15:57.066Z,3.30
2019-01-03T09:18:50.055Z,3.40
2019-01-03T09:21:36.829Z,3.50
2019-01-03T09:24:34.015Z,3.50
2019-01-03T09:27:26.138Z,3.60
2019-01-03T09:30:07.786Z,3.60
2019-01-03T09:32:54.544Z,3.60
2019-01-03T09:35:48.579Z,3.60
2019-01-03T09:38:35.570Z,3.50
2019-01-03T09:41:32.678Z,3.50
2019-01-03T09:44:20.673Z,3.50
2019-01-03T09:46:49.865Z,3.40
2019-01-03T09:49:18.927Z,3.40
2019-01-03T09:51:51.022Z,3.40
2019-01-03T09:54:19.900Z,3.40
2019-01-03T09:56:48.928Z,3.40
2019-01-03T09:59:18.031Z,3.30
2019-01-03T10:01:46.942Z,3.30
2019-01-03T10:04:15.943Z,3.30
2019-01-03T10:06:50.184Z,3.30
2019-01-03T10:09:19.570Z,3.30
2019-01-03T10:11:48.905Z,3.30
2019-01-03T10:14:17.855Z,3.30
2019-01-03T10:16:47.051Z,3.30
2019-01-03T10:19:15.943Z,3.40
2019-01-03T10:21:52.133Z,3.40
2019-01-03T10:24:28.549Z,3.40
2019-01-03T10:26:58.130Z,3.50
2019-01-03T10:29:27.196Z,3.50
2019-01-03T10:31:56.910Z,3.60
2019-01-03T10:34:25.866Z,3.60
2019-01-03T10:36:55.157Z,3.70
2019-01-03T10:39:24.638Z,3.70
2019-01-03T10:41:54.022Z,3.80
2019-01-03T10:44:23.114Z,3.80
2019-01-03T10:46:52.232Z,3.80
2019-01-03T10:49:21.207Z,3.80
2019-01-03T10:51:50.314Z,3.80
2019-01-03T10:54:19.416Z,3.90
2019-01-03T10:56:48.977Z,3.90
2019-01-03T10:59:18.406Z,3.90
2019-01-03T11:01:47.380Z,3.80
2019-01-03T11:04:16.418Z,3.70
2019-01-03T11:06:45.355Z,3.70
2019-01-03T11:09:14.638Z,3.70
2019-01-03T11:11:43.875Z,3.70
2019-01-03T11:14:13.305Z,3.70
2019-01-03T11:16:42.467Z,3.70
2019-01-03T11:19:11.711Z,3.70
2019-01-03T11:21:42.469Z,3.70
2019-01-03T11:24:11.702Z,3.80
2019-01-03T11:26:40.945Z,3.80
2019-01-03T11:29:10.657Z,3.80
2019-01-03T11:31:39.841Z,3.80
2019-01-03T11:34:09.058Z,3.80
2019-01-03T11:36:37.947Z,3.70
2019-01-03T11:39:07.747Z,3.70
2019-01-03T11:41:37.133Z,3.70
2019-01-03T11:44:07.815Z,3.70
2019-01-03T11:46:37.456Z,3.80
2019-01-03T11:49:06.470Z,3.90
2019-01-03T11:51:35.363Z,3.80
2019-01-03T11:54:05.959Z,3.90
2019-01-03T11:56:35.201Z,3.90
2019-01-03T11:59:04.337Z,4.00
2019-01-03T12:01:33.228Z,3.90
2019-01-03T12:04:02.400Z,3.90
2019-01-03T12:06:31.287Z,4.00
2019-01-03T12:09:00.344Z,4.00
2019-01-03T12:11:29.325Z,4.10
2019-01-03T12:13:58.358Z,4.10
2019-01-03T12:16:27.732Z,4.20
2019-01-03T12:18:56.800Z,4.20
2019-01-03T12:21:26.223Z,4.10
2019-01-03T12:23:55.245Z,4.20
2019-01-03T12:26:24.674Z,4.10
2019-01-03T12:28:53.743Z,4.10
2019-01-03T12:31:23.156Z,4.20
2019-01-03T12:33:52.382Z,4.30
2019-01-03T12:36:21.246Z,4.30
2019-01-03T12:38:50.351Z,4.40
2019-01-03T12:41:19.572Z,4.30
2019-01-03T12:43:48.632Z,4.30
2019-01-03T12:46:18.176Z,4.30
2019-01-03T12:48:47.208Z,4.30
2019-01-03T12:51:16.662Z,4.40
2019-01-03T12:53:45.668Z,4.50
2019-01-03T12:56:14.726Z,4.50
2019-01-03T12:58:43.871Z,4.40
2019-01-03T13:01:13.099Z,4.50
2019-01-03T13:03:42.148Z,4.50
2019-01-03T13:06:11.143Z,4.60
2019-01-03T13:08:40.196Z,4.70
2019-01-03T13:11:09.588Z,4.70
2019-01-03T13:13:38.948Z,4.80
2019-01-03T13:16:08.080Z,4.80
2019-01-03T13:18:37.400Z,4.80
2019-01-03T13:21:06.801Z,4.80
2019-01-03T13:23:35.939Z,4.80
2019-01-03T13:26:05.306Z,4.90
2019-01-03T13:28:34.449Z,4.90
2019-01-03T13:31:03.633Z,4.90
2019-01-03T13:33:32.617Z,5.00
2019-01-03T13:36:01.690Z,5.00
2019-01-03T13:38:30.751Z,5.00
2019-01-03T13:41:00.232Z,5.00
2019-01-03T13:43:29.307Z,5.00
2019-01-03T13:45:58.896Z,4.90
2019-01-03T13:48:27.958Z,4.90
2019-01-03T13:50:57.117Z,5.00
2019-01-03T13:53:26.601Z,5.00
2019-01-03T13:55:55.889Z,5.00
2019-01-03T13:58:24.985Z,5.00
2019-01-03T14:00:54.250Z,5.00
2019-01-03T14:03:23.230Z,5.00
2019-01-03T14:05:52.485Z,5.00
2019-01-03T14:08:21.955Z,5.00
2019-01-03T14:10:51.603Z,5.00
2019-01-03T14:13:21.113Z,5.00
2019-01-03T14:15:50.268Z,5.00
2019-01-03T14:18:19.350Z,5.00
2019-01-03T14:20:51.495Z,5.00
2019-01-03T14:23:20.670Z,5.00
2019-01-03T14:25:49.730Z,5.00
2019-01-03T14:28:18.994Z,4.90
2019-01-03T14:30:48.028Z,4.90
2019-01-03T14:33:17.089Z,4.90
2019-01-03T14:35:46.883Z,4.90
2019-01-03T14:38:15.923Z,4.90
2019-01-03T14:40:45.441Z,4.90
2019-01-03T14:43:14.994Z,4.90
2019-01-03T14:45:44.011Z,4.90
2019-01-03T14:48:12.924Z,4.90
2019-01-03T14:50:42.476Z,4.90
2019-01-03T14:53:11.508Z,4.90
2019-01-03T14:55:40.612Z,4.90
2019-01-03T14:58:09.826Z,4.80
2019-01-03T15:00:38.802Z,4.80
2019-01-03T15:03:07.932Z,4.80
2019-01-03T15:05:36.848Z,4.80
2019-01-03T15:08:05.881Z,4.80
2019-01-03T15:10:35.182Z,4.80
2019-01-03T15:13:04.347Z,4.70
2019-01-03T15:15:33.291Z,4.70
2019-01-03T15:18:02.434Z,4.70
2019-01-03T15:20:31.431Z,4.70
2019-01-03T15:23:00.378Z,4.70
2019-01-03T15:25:29.884Z,4.60
2019-01-03T15:27:58.923Z,4.60
2019-01-03T15:30:28.152Z,4.60
2019-01-03T15:32:57.527Z,4.60
2019-01-03T15:35:26.402Z,4.50
2019-01-03T15:37:55.690Z,4.50
2019-01-03T15:40:25.067Z,4.50
2019-01-03T15:42:53.954Z,4.50
2019-01-03T15:45:23.195Z,4.40
2019-01-03T15:47:52.210Z,4.40
2019-01-03T15:50:21.186Z,4.40
2019-01-03T15:52:50.524Z,4.40
2019-01-03T15:55:19.487Z,4.40
2019-01-03T15:57:48.565Z,4.40
2019-01-03T16:00:18.203Z,4.40
2019-01-03T16:02:47.215Z,4.30
2019-01-03T16:05:16.255Z,4.30
2019-01-03T16:07:45.394Z,4.30
2019-01-03T16:10:14.337Z,4.30
2019-01-03T16:12:43.383Z,4.20
2019-01-03T16:15:12.428Z,4.20
2019-01-03T16:17:41.593Z,4.20
2019-01-03T16:20:10.738Z,4.20
2019-01-03T16:22:39.801Z,4.10
2019-01-03T16:25:08.850Z,4.10
2019-01-03T16:27:37.896Z,4.10
2019-01-03T16:30:08.767Z,4.00
2019-01-03T16:32:37.955Z,3.90
2019-01-03T16:35:08.150Z,3.80
2019-01-03T16:37:37.108Z,3.80
2019-01-03T16:40:07.285Z,3.80
2019-01-03T16:42:41.159Z,3.70
2019-01-03T16:45:10.736Z,3.70
2019-01-03T16:47:39.742Z,3.60
2019-01-03T16:50:11.436Z,3.50
2019-01-03T16:52:40.518Z,3.50
2019-01-03T16:55:09.545Z,3.50
2019-01-03T16:57:38.490Z,3.50
2019-01-03T17:00:08.916Z,3.40
2019-01-03T17:02:38.134Z,3.40
2019-01-03T17:05:07.629Z,3.30
2019-01-03T17:07:36.700Z,3.30
2019-01-03T17:10:08.961Z,3.30
2019-01-03T17:12:38.540Z,3.30
2019-01-03T17:15:08.163Z,3.30
2019-01-03T17:17:37.523Z,3.30
2019-01-03T17:20:07.812Z,3.40
2019-01-03T17:22:37.086Z,3.30
2019-01-03T17:25:07.201Z,3.40
2019-01-03T17:27:36.552Z,3.40
2019-01-03T17:30:05.964Z,3.40
2019-01-03T17:32:35.111Z,3.40
2019-01-03T17:35:04.411Z,3.40
2019-01-03T17:37:33.467Z,3.40
2019-01-03T17:40:02.665Z,3.40
2019-01-03T17:42:31.576Z,3.40
2019-01-03T17:45:00.787Z,3.40
2019-01-03T17:47:29.982Z,3.40
2019-01-03T17:49:58.976Z,3.40
2019-01-03T17:52:27.983Z,3.50
2019-01-03T17:54:57.325Z,3.40
2019-01-03T17:57:26.278Z,3.40
2019-01-03T17:59:55.630Z,3.50
2019-01-03T18:02:24.820Z,3.50
2019-01-03T18:04:53.847Z,3.50
2019-01-03T18:07:23.677Z,3.50
2019-01-03T18:09:53.053Z,3.60
2019-01-03T18:12:22.130Z,3.60
2019-01-03T18:14:51.217Z,3.60
2019-01-03T18:17:20.475Z,3.70
2019-01-03T18:19:49.647Z,3.70
2019-01-03T18:22:18.739Z,3.70
2019-01-03T18:24:49.150Z,3.70
2019-01-03T18:27:19.016Z,3.70
2019-01-03T18:29:48.003Z,3.80
2019-01-03T18:32:17.202Z,3.80
2019-01-03T18:34:46.484Z,3.80
2019-01-03T18:37:15.602Z,3.80
2019-01-03T18:39:44.753Z,3.80
2019-01-03T18:42:13.804Z,3.70
2019-01-03T18:44:42.843Z,3.70
2019-01-03T18:47:11.907Z,3.60
2019-01-03T18:49:43.538Z,3.60
2019-01-03T18:52:12.815Z,3.50
2019-01-03T18:54:41.801Z,3.50
2019-01-03T18:57:11.483Z,3.50
2019-01-03T18:59:40.734Z,3.40
2019-01-03T19:02:09.898Z,3.40
2019-01-03T19:04:38.915Z,3.40
2019-01-03T19:07:08.006Z,3.40
2019-01-03T19:09:37.023Z,3.40
2019-01-03T19:12:06.397Z,3.40
2019-01-03T19:14:35.368Z,3.40
2019-01-03T19:17:04.430Z,3.30
2019-01-03T19:19:33.987Z,3.20
2019-01-03T19:22:03.357Z,3.20
2019-01-03T19:24:32.466Z,3.20
2019-01-03T19:27:01.664Z,3.20
2019-01-03T19:29:31.292Z,3.10
2019-01-03T19:32:00.510Z,3.10
2019-01-03T19:34:29.596Z,3.10
2019-01-03T19:36:58.505Z,3.00
2019-01-03T19:39:27.447Z,3.00
2019-01-03T19:41:56.761Z,2.90
2019-01-03T19:44:25.961Z,2.90
2019-01-03T19:46:55.428Z,2.80
2019-01-03T19:49:24.405Z,2.60
2019-01-03T19:51:53.562Z,2.60
2019-01-03T19:54:22.562Z,2.60
2019-01-03T19:56:52.010Z,2.50
2019-01-03T19:59:21.428Z,2.40
2019-01-03T20:01:50.450Z,2.30
2019-01-03T20:04:20.031Z,2.30
2019-01-03T20:06:49.106Z,2.40
2019-01-03T20:09:17.990Z,2.30
2019-01-03T20:11:47.029Z,2.30
2019-01-03T20:14:16.021Z,2.20
2019-01-03T20:16:45.198Z,2.30
2019-01-03T20:19:14.516Z,2.30
2019-01-03T20:21:43.596Z,2.20
2019-01-03T20:24:12.831Z,2.20
2019-01-03T20:26:41.823Z,2.10
2019-01-03T20:29:11.062Z,2.10
2019-01-03T20:31:40.107Z,2.00
2019-01-03T20:34:09.502Z,2.00
2019-01-03T20:36:38.658Z,2.00
2019-01-03T20:39:07.965Z,1.90
2019-01-03T20:41:37.870Z,2.00
2019-01-03T20:44:08.046Z,2.00
2019-01-03T20:46:37.159Z,2.00
2019-01-03T20:49:08.058Z,1.90
2019-01-03T20:51:37.137Z,1.80
2019-01-03T20:54:06.658Z,1.80
2019-01-03T20:56:35.701Z,1.80
2019-01-03T20:59:05.043Z,2.00
2019-01-03T21:01:34.567Z,1.90
2019-01-03T21:04:04.130Z,2.00
2019-01-03T21:06:33.067Z,1.90
2019-01-03T21:09:02.226Z,1.90
2019-01-03T21:11:31.273Z,1.80
2019-01-03T21:14:01.077Z,1.80
2019-01-03T21:16:30.017Z,1.70
2019-01-03T21:18:58.995Z,1.70
2019-01-03T21:21:28.290Z,1.70
2019-01-03T21:23:57.570Z,1.70
2019-01-03T21:26:27.114Z,1.70
2019-01-03T21:28:56.268Z,1.60
2019-01-03T21:31:25.334Z,1.60
2019-01-03T21:33:54.465Z,1.60
2019-01-03T21:36:23.724Z,1.60
2019-01-03T21:38:53.173Z,1.60
2019-01-03T21:41:22.417Z,1.60
2019-01-03T21:43:51.604Z,1.60
2019-01-03T21:46:20.847Z,1.60
2019-01-03T21:48:53.199Z,1.60
2019-01-03T21:51:22.566Z,1.60
2019-01-03T21:53:51.600Z,1.50
2019-01-03T21:56:20.684Z,1.50
2019-01-03T21:58:53.676Z,1.50
2019-01-03T22:01:22.799Z,1.50
2019-01-03T22:03:52.377Z,1.50
2019-01-03T22:06:21.658Z,1.50
2019-01-03T22:08:50.753Z,1.50
2019-01-03T22:11:19.859Z,1.60
2019-01-03T22:13:52.898Z,1.90
2019-01-03T22:16:22.205Z,1.60
2019-01-03T22:18:51.242Z,1.60
2019-01-03T22:21:20.240Z,1.50
2019-01-03T22:23:49.451Z,1.50
2019-01-03T22:26:18.329Z,1.40
2019-01-03T22:28:47.289Z,1.40
2019-01-03T22:31:16.335Z,1.50
2019-01-03T22:33:45.531Z,1.40
2019-01-03T22:36:14.651Z,1.40
2019-01-03T22:38:43.624Z,1.40
2019-01-03T22:41:12.914Z,1.40
2019-01-03T22:43:42.431Z,1.30
2019-01-03T22:46:13.367Z,1.40
2019-01-03T22:48:42.381Z,1.30
2019-01-03T22:51:11.722Z,1.30
2019-01-03T22:53:40.677Z,1.30
2019-01-03T22:56:10.601Z,1.20
2019-01-03T22:58:39.735Z,1.20
2019-01-03T23:01:09.670Z,1.00
2019-01-03T23:03:38.991Z,1.00
2019-01-03T23:06:08.035Z,1.00
2019-01-03T23:08:37.588Z,1.00
2019-01-03T23:11:06.691Z,0.90
2019-01-03T23:13:35.731Z,0.80
2019-01-03T23:16:04.743Z,0.90
2019-01-03T23:18:33.698Z,0.90
2019-01-03T23:21:02.636Z,0.90
2019-01-03T23:23:31.624Z,0.80
2019-01-03T23:26:02.247Z,0.70
2019-01-03T23:28:31.486Z,0.70
2019-01-03T23:31:00.511Z,0.70
2019-01-03T23:33:29.696Z,0.70
2019-01-03T23:35:58.745Z,0.70
2019-01-03T23:38:27.747Z,0.70
2019-01-03T23:40:56.776Z,0.70
2019-01-03T23:43:25.957Z,0.70
2019-01-03T23:45:54.963Z,0.80
2019-01-03T23:48:24.521Z,0.80
2019-01-03T23:50:53.655Z,0.70
2019-01-03T23:53:22.854Z,0.70
2019-01-03T23:55:57.098Z,0.80
2019-01-03T23:58:26.090Z,0.80
